Time;durP1;ratioP1;P1;durP2;ratioP2;P2;SDS_P1;SDS_P2;PMS_P1;PMS_P2;Temp;Humidity;BMP_temperature;BMP_pressure;BME280_temperature;BME280_humidity;BME280_pressure;Samples;Min_cycle;Max_cycle;Signal;HPM_P1;HPM_P2
2023/12/13 00:00:37;;;;;;;275.98;136.88;;;9.50;99.90;;;;;;5034656;28;20082;-56
2023/12/13 00:03:03;;;;;;;264.58;132.48;;;9.50;99.90;;;;;;5035006;28;20515;-56
2023/12/13 00:05:29;;;;;;;260.05;130.23;;;9.50;99.90;;;;;;5035275;28;20033;-56
2023/12/13 00:07:55;;;;;;;244.77;123.45;;;9.50;99.90;;;;;;5036952;28;20025;-56
2023/12/13 00:10:21;;;;;;;247.07;122.38;;;9.50;99.90;;;;;;5038493;28;20044;-56
2023/12/13 00:12:47;;;;;;;248.65;124.45;;;9.50;99.90;;;;;;5038785;28;20028;-56
2023/12/13 00:15:13;;;;;;;243.68;124.47;;;9.60;99.90;;;;;;5038393;28;20079;-56
2023/12/13 00:17:39;;;;;;;252.77;123.70;;;9.60;99.90;;;;;;5038504;28;20479;-56
2023/12/13 00:20:07;;;;;;;246.98;127.43;;;9.50;99.90;;;;;;5038503;28;20029;-56
2023/12/13 00:22:33;;;;;;;251.40;126.45;;;9.60;99.90;;;;;;5038266;28;20022;-56
2023/12/13 00:24:59;;;;;;;240.05;121.32;;;9.60;99.90;;;;;;5038221;28;20399;-56
2023/12/13 00:27:25;;;;;;;241.73;120.90;;;9.60;99.90;;;;;;5038408;28;20025;-56
2023/12/13 00:29:51;;;;;;;230.32;120.13;;;9.60;99.90;;;;;;5038472;28;20033;-56
2023/12/13 00:32:17;;;;;;;231.27;117.88;;;9.60;99.90;;;;;;5038557;28;20061;-56
2023/12/13 00:34:43;;;;;;;242.32;121.70;;;9.60;99.90;;;;;;5038334;28;20021;-56
2023/12/13 00:37:08;;;;;;;220.10;113.60;;;9.60;99.90;;;;;;5037867;28;20025;-56
2023/12/13 00:39:34;;;;;;;213.38;108.05;;;9.60;99.90;;;;;;5038149;28;20029;-56
2023/12/13 00:42:00;;;;;;;202.65;102.45;;;9.60;99.90;;;;;;5038112;28;20041;-56
2023/12/13 00:44:26;;;;;;;189.95;95.57;;;9.60;99.90;;;;;;5037904;28;20091;-56
2023/12/13 00:46:52;;;;;;;194.75;97.90;;;9.60;99.90;;;;;;5037958;28;20033;-56
2023/12/13 00:49:20;;;;;;;191.88;97.53;;;9.60;99.90;;;;;;5037979;28;20029;-56
2023/12/13 00:51:45;;;;;;;177.50;92.97;;;9.60;99.90;;;;;;5037783;28;20070;-56
2023/12/13 00:54:11;;;;;;;182.52;94.97;;;9.70;99.90;;;;;;5037974;28;20017;-56
2023/12/13 00:56:37;;;;;;;182.35;94.10;;;9.60;99.90;;;;;;5037632;28;20482;-57
2023/12/13 00:59:03;;;;;;;177.48;92.97;;;9.70;99.90;;;;;;5037688;28;20041;-56
2023/12/13 01:01:29;;;;;;;176.40;90.85;;;9.70;99.90;;;;;;5037702;28;20052;-56
2023/12/13 01:03:55;;;;;;;184.55;95.03;;;9.70;99.90;;;;;;5037755;28;20388;-56
2023/12/13 01:06:21;;;;;;;172.82;91.18;;;9.70;99.90;;;;;;5037423;28;20112;-56
2023/12/13 01:08:47;;;;;;;180.75;95.20;;;9.70;99.90;;;;;;5037560;28;20032;-56
2023/12/13 01:11:13;;;;;;;169.90;88.70;;;9.70;99.90;;;;;;5037478;28;20041;-56
2023/12/13 01:13:39;;;;;;;172.65;88.25;;;9.80;99.90;;;;;;5037282;28;20480;-56
2023/12/13 01:16:05;;;;;;;160.63;81.25;;;9.70;99.90;;;;;;5037609;28;20033;-56
2023/12/13 01:18:31;;;;;;;158.85;80.65;;;9.70;99.90;;;;;;5036232;28;20080;-56
2023/12/13 01:20:57;;;;;;;152.75;80.22;;;9.80;99.90;;;;;;5037127;28;20037;-56
2023/12/13 01:23:23;;;;;;;144.40;75.70;;;9.80;99.90;;;;;;5037231;28;20018;-57
2023/12/13 01:25:49;;;;;;;145.27;73.90;;;9.80;99.90;;;;;;5037281;28;20040;-56
2023/12/13 01:28:15;;;;;;;142.73;72.55;;;9.80;99.90;;;;;;5036996;28;20357;-56
2023/12/13 01:30:40;;;;;;;217.18;94.35;;;9.80;99.90;;;;;;5037160;28;20025;-56
2023/12/13 01:33:06;;;;;;;187.38;85.43;;;9.80;99.90;;;;;;5037478;28;20033;-56
2023/12/13 01:35:32;;;;;;;174.70;81.85;;;9.80;99.90;;;;;;5036963;28;20028;-56
2023/12/13 01:37:58;;;;;;;172.57;81.63;;;9.80;99.90;;;;;;5036940;28;20065;-56
2023/12/13 01:40:24;;;;;;;161.80;79.47;;;9.90;99.90;;;;;;5036811;28;20565;-56
2023/12/13 01:42:50;;;;;;;163.65;79.35;;;9.90;99.90;;;;;;5036656;28;20075;-56
2023/12/13 01:45:16;;;;;;;163.85;80.57;;;9.90;99.90;;;;;;5035670;28;20066;-56
2023/12/13 01:47:42;;;;;;;171.55;81.80;;;9.90;99.90;;;;;;5036902;28;20025;-56
2023/12/13 01:50:08;;;;;;;181.77;82.90;;;9.90;99.90;;;;;;5036595;28;20033;-56
2023/12/13 01:52:35;;;;;;;194.73;85.78;;;9.80;99.90;;;;;;5036857;28;20068;-56
2023/12/13 01:55:01;;;;;;;215.98;93.55;;;9.80;99.90;;;;;;5036885;28;20416;-56
2023/12/13 01:57:28;;;;;;;218.75;91.65;;;9.80;99.90;;;;;;5036340;28;20104;-56
2023/12/13 01:59:54;;;;;;;226.38;93.20;;;9.80;99.90;;;;;;5036723;28;20156;-56
2023/12/13 02:02:21;;;;;;;241.32;96.82;;;9.90;99.90;;;;;;5036544;28;20033;-56
2023/12/13 02:04:47;;;;;;;200.90;87.53;;;9.80;99.90;;;;;;5036380;28;20033;-56
2023/12/13 02:07:14;;;;;;;178.98;76.82;;;9.80;99.90;;;;;;5036494;28;20025;-56
2023/12/13 02:09:40;;;;;;;197.48;86.60;;;9.80;99.90;;;;;;5036433;28;20116;-56
2023/12/13 02:12:06;;;;;;;169.38;75.25;;;9.80;99.90;;;;;;5036094;28;20080;-56
2023/12/13 02:14:33;;;;;;;160.40;74.63;;;9.70;99.90;;;;;;5036429;28;20025;-56
2023/12/13 02:16:59;;;;;;;152.45;70.30;;;9.70;99.90;;;;;;5036225;28;20088;-56
2023/12/13 02:19:25;;;;;;;152.95;72.32;;;9.60;99.90;;;;;;5036132;28;20446;-56
2023/12/13 02:21:51;;;;;;;201.50;89.15;;;9.60;99.90;;;;;;5036183;28;20040;-56
2023/12/13 02:24:22;;;;;;;211.32;90.72;;;9.60;99.90;;;;;;5036286;28;20495;-56
2023/12/13 02:26:50;;;;;;;230.70;98.38;;;9.60;99.90;;;;;;5035872;28;20038;-56
2023/12/13 02:29:16;;;;;;;201.20;88.78;;;9.60;99.90;;;;;;5035946;28;20026;-56
2023/12/13 02:31:44;;;;;;;198.57;88.25;;;9.60;99.90;;;;;;5035693;28;20117;-56
2023/12/13 02:34:10;;;;;;;190.15;89.10;;;9.60;99.90;;;;;;5035862;28;20108;-56
2023/12/13 02:36:35;;;;;;;177.55;81.80;;;9.60;99.90;;;;;;5035860;28;20514;-56
2023/12/13 02:39:04;;;;;;;173.70;81.95;;;9.50;99.90;;;;;;5035980;28;20123;-56
2023/12/13 02:41:32;;;;;;;163.80;77.97;;;9.50;99.90;;;;;;5035547;28;20376;-56
2023/12/13 02:43:58;;;;;;;137.13;68.60;;;9.50;99.90;;;;;;5036023;28;20083;-56
2023/12/13 02:46:24;;;;;;;142.07;68.32;;;9.50;99.90;;;;;;5035675;28;20037;-56
2023/12/13 02:48:49;;;;;;;146.77;68.55;;;9.40;99.90;;;;;;5034007;28;20033;-56
2023/12/13 02:51:15;;;;;;;143.85;67.43;;;9.40;99.90;;;;;;5035440;28;20052;-56
2023/12/13 02:53:41;;;;;;;167.20;74.75;;;9.40;99.90;;;;;;5035681;28;20025;-56
2023/12/13 02:56:08;;;;;;;147.13;67.28;;;9.40;99.90;;;;;;5035350;28;20107;-56
2023/12/13 02:58:34;;;;;;;126.45;58.70;;;9.40;99.90;;;;;;5035646;28;20075;-56
2023/12/13 03:01:00;;;;;;;114.35;52.58;;;9.50;99.90;;;;;;5035383;28;20026;-56
2023/12/13 03:03:25;;;;;;;104.13;48.83;;;9.50;99.90;;;;;;5035447;28;20101;-56
2023/12/13 03:05:51;;;;;;;81.90;42.10;;;9.60;99.90;;;;;;5035458;28;20112;-56
2023/12/13 03:08:17;;;;;;;92.18;43.63;;;9.50;99.90;;;;;;5035348;28;20025;-56
2023/12/13 03:10:43;;;;;;;112.72;48.95;;;9.60;99.90;;;;;;5035415;28;20103;-56
2023/12/13 03:13:09;;;;;;;116.10;50.58;;;9.50;99.90;;;;;;5035221;28;20091;-56
2023/12/13 03:15:35;;;;;;;89.75;42.05;;;9.50;99.90;;;;;;5035474;28;20037;-56
2023/12/13 03:18:01;;;;;;;81.20;39.83;;;9.50;99.90;;;;;;5035382;28;20021;-56
2023/12/13 03:20:27;;;;;;;79.03;39.97;;;9.50;99.90;;;;;;5034925;28;20041;-56
2023/12/13 03:22:53;;;;;;;131.15;57.13;;;9.40;99.90;;;;;;5035292;28;20406;-56
2023/12/13 03:25:19;;;;;;;129.35;56.78;;;9.50;99.90;;;;;;5035260;28;20379;-56
2023/12/13 03:27:45;;;;;;;124.50;58.75;;;9.40;99.90;;;;;;5035079;28;20037;-56
2023/12/13 03:30:11;;;;;;;82.45;42.28;;;9.40;99.90;;;;;;5035152;28;20418;-56
2023/12/13 03:32:38;;;;;;;94.40;46.72;;;9.40;99.90;;;;;;5035408;28;20040;-56
2023/12/13 03:35:06;;;;;;;88.05;45.42;;;9.40;99.90;;;;;;5035228;28;20025;-56
2023/12/13 03:37:33;;;;;;;82.53;43.42;;;9.40;99.90;;;;;;5035031;28;20033;-56
2023/12/13 03:39:59;;;;;;;96.18;49.90;;;9.40;99.90;;;;;;5035071;28;20033;-56
2023/12/13 03:42:25;;;;;;;101.55;50.03;;;9.40;99.90;;;;;;5036634;28;20040;-56
2023/12/13 03:44:51;;;;;;;87.32;45.72;;;9.30;99.90;;;;;;5039326;28;20045;-56
2023/12/13 03:47:17;;;;;;;91.97;44.20;;;9.30;99.90;;;;;;5039097;28;20071;-56
2023/12/13 03:49:43;;;;;;;87.45;43.10;;;9.30;99.90;;;;;;5038830;28;20034;-56
2023/12/13 03:52:10;;;;;;;82.25;40.58;;;9.40;99.90;;;;;;5039108;28;20040;-56
2023/12/13 03:54:36;;;;;;;72.05;37.67;;;9.40;99.90;;;;;;5039264;28;20392;-56
2023/12/13 03:57:02;;;;;;;83.00;42.40;;;9.40;99.90;;;;;;5038730;28;20087;-56
2023/12/13 03:59:28;;;;;;;80.55;41.85;;;9.50;99.90;;;;;;5039009;28;20127;-56
2023/12/13 04:01:54;;;;;;;86.40;45.13;;;9.50;99.90;;;;;;5038707;28;20073;-56
2023/12/13 04:04:20;;;;;;;107.05;53.95;;;9.50;99.90;;;;;;5038664;28;20095;-56
2023/12/13 04:06:46;;;;;;;104.00;51.00;;;9.50;99.90;;;;;;5038702;28;20066;-56
2023/12/13 04:09:12;;;;;;;93.38;46.17;;;9.50;99.90;;;;;;5038652;28;20042;-56
2023/12/13 04:11:38;;;;;;;91.70;47.65;;;9.40;99.90;;;;;;5038570;28;20053;-56
2023/12/13 04:14:04;;;;;;;76.22;41.15;;;9.50;99.90;;;;;;5038738;28;20021;-56
2023/12/13 04:16:30;;;;;;;80.03;42.00;;;9.50;99.90;;;;;;5038563;28;20041;-56
2023/12/13 04:18:56;;;;;;;88.93;44.22;;;9.50;99.90;;;;;;5038521;28;20026;-56
2023/12/13 04:21:22;;;;;;;92.15;46.13;;;9.50;99.90;;;;;;5038213;28;20049;-56
2023/12/13 04:23:47;;;;;;;85.07;41.47;;;9.40;99.90;;;;;;5038470;28;20034;-56
2023/12/13 04:26:13;;;;;;;78.38;39.50;;;9.40;99.90;;;;;;5038062;28;20443;-56
2023/12/13 04:28:39;;;;;;;76.80;40.15;;;9.40;99.90;;;;;;5038408;28;20373;-56
2023/12/13 04:31:05;;;;;;;72.53;37.35;;;9.30;99.90;;;;;;5038343;28;20133;-56
2023/12/13 04:33:33;;;;;;;64.18;33.92;;;9.30;99.90;;;;;;5038193;28;20346;-56
2023/12/13 04:36:00;;;;;;;73.32;38.28;;;9.40;99.90;;;;;;5038262;28;20040;-56
2023/12/13 04:38:25;;;;;;;61.58;32.90;;;9.30;99.90;;;;;;5038068;28;20029;-56
2023/12/13 04:40:51;;;;;;;67.75;33.15;;;9.30;99.90;;;;;;5037849;28;20022;-56
2023/12/13 04:43:17;;;;;;;95.65;51.38;;;9.40;99.90;;;;;;5038156;28;20388;-56
2023/12/13 04:45:43;;;;;;;79.85;41.38;;;9.30;99.90;;;;;;5038158;28;20029;-56
2023/12/13 04:48:09;;;;;;;87.72;47.90;;;9.40;99.90;;;;;;5037645;28;20040;-56
2023/12/13 04:50:35;;;;;;;80.68;43.03;;;9.40;99.90;;;;;;5037781;28;20041;-56
2023/12/13 04:53:02;;;;;;;89.60;51.75;;;9.30;99.90;;;;;;5037655;28;20022;-56
2023/12/13 04:55:28;;;;;;;62.50;33.55;;;9.40;99.90;;;;;;5037694;28;20075;-56
2023/12/13 04:57:54;;;;;;;58.78;33.50;;;9.40;99.90;;;;;;5037905;28;20418;-56
2023/12/13 05:00:20;;;;;;;77.00;39.63;;;9.40;99.90;;;;;;5037604;28;20065;-56
2023/12/13 05:02:47;;;;;;;74.45;37.05;;;9.40;99.90;;;;;;5037601;28;20124;-56
2023/12/13 05:05:13;;;;;;;67.97;37.58;;;9.40;99.90;;;;;;5037761;28;20032;-56
2023/12/13 05:07:38;;;;;;;71.38;37.03;;;9.30;99.90;;;;;;5037496;28;20033;-56
2023/12/13 05:10:06;;;;;;;66.10;34.97;;;9.30;99.90;;;;;;5037528;28;20037;-56
2023/12/13 05:12:31;;;;;;;66.25;34.22;;;9.30;99.90;;;;;;5037617;28;20037;-56
2023/12/13 05:14:57;;;;;;;63.60;35.80;;;9.30;99.90;;;;;;5037615;28;20032;-56
2023/12/13 05:17:23;;;;;;;66.95;34.65;;;9.30;99.90;;;;;;5037247;28;20041;-56
2023/12/13 05:19:49;;;;;;;63.65;34.58;;;9.20;99.90;;;;;;5037412;28;20507;-56
2023/12/13 05:22:15;;;;;;;69.72;36.92;;;9.30;99.90;;;;;;5052406;28;20046;-56
2023/12/13 05:24:41;;;;;;;71.53;37.10;;;9.20;99.90;;;;;;5037090;28;20034;-56
2023/12/13 05:27:07;;;;;;;65.32;36.10;;;9.10;99.90;;;;;;5037118;28;20475;-56
2023/12/13 05:29:34;;;;;;;69.35;36.47;;;9.10;99.90;;;;;;5037299;28;20022;-56
2023/12/13 05:32:00;;;;;;;68.85;36.40;;;9.10;99.90;;;;;;5037021;28;20022;-56
2023/12/13 05:34:26;;;;;;;68.03;37.03;;;9.00;99.90;;;;;;5037110;28;20029;-56
2023/12/13 05:36:51;;;;;;;78.03;40.80;;;9.00;99.90;;;;;;5036997;28;20141;-56
2023/12/13 05:39:17;;;;;;;236.57;89.03;;;8.90;99.90;;;;;;5036977;28;20032;-56
2023/12/13 05:41:43;;;;;;;120.13;52.53;;;8.90;99.90;;;;;;5037062;28;20037;-56
2023/12/13 05:44:09;;;;;;;162.38;65.28;;;8.90;99.90;;;;;;5037078;28;20030;-56
2023/12/13 05:46:35;;;;;;;158.23;63.78;;;9.00;99.90;;;;;;5036701;28;20030;-56
2023/12/13 05:49:03;;;;;;;140.00;57.40;;;9.00;99.90;;;;;;5036970;28;20319;-56
2023/12/13 05:51:29;;;;;;;210.52;81.95;;;9.00;99.90;;;;;;5036661;28;20048;-56
2023/12/13 05:53:56;;;;;;;167.55;69.22;;;9.10;99.90;;;;;;5036572;28;20454;-56
2023/12/13 05:56:23;;;;;;;86.78;43.17;;;9.10;99.90;;;;;;5036847;28;20025;-56
2023/12/13 05:58:49;;;;;;;69.72;34.00;;;9.10;99.90;;;;;;5036770;28;20028;-56
2023/12/13 06:01:14;;;;;;;95.55;43.10;;;9.20;99.90;;;;;;5036441;28;20407;-56
2023/12/13 06:03:40;;;;;;;91.43;45.45;;;9.30;99.90;;;;;;5036640;28;20021;-56
2023/12/13 06:06:07;;;;;;;84.43;40.70;;;9.30;99.90;;;;;;5035607;28;20040;-57
2023/12/13 06:08:33;;;;;;;90.40;43.83;;;9.30;99.90;;;;;;5036336;28;20510;-56
2023/12/13 06:10:59;;;;;;;108.35;54.13;;;9.30;99.90;;;;;;5036460;28;20026;-56
2023/12/13 06:13:25;;;;;;;179.20;71.70;;;9.30;99.90;;;;;;5036349;28;20085;-56
2023/12/13 06:15:51;;;;;;;182.75;75.40;;;9.30;99.90;;;;;;5036272;28;20053;-56
2023/12/13 06:18:17;;;;;;;260.55;118.15;;;9.40;99.90;;;;;;5036052;28;20144;-56
2023/12/13 06:20:43;;;;;;;83.72;37.60;;;9.40;99.90;;;;;;5035152;28;20048;-56
2023/12/13 06:23:09;;;;;;;46.03;23.98;;;9.70;99.90;;;;;;5035382;28;20434;-56
2023/12/13 06:25:34;;;;;;;59.03;28.00;;;10.20;99.90;;;;;;5030172;28;20068;-56
2023/12/13 06:28:00;;;;;;;70.60;33.13;;;10.20;99.90;;;;;;5026668;28;20043;-56
2023/12/13 06:30:26;;;;;;;103.88;52.75;;;10.10;99.90;;;;;;5035512;28;20021;-57
2023/12/13 06:32:52;;;;;;;92.45;47.67;;;10.10;99.90;;;;;;5035559;28;20052;-56
2023/12/13 06:35:18;;;;;;;73.47;32.78;;;10.30;99.90;;;;;;5035921;28;20033;-56
2023/12/13 06:37:44;;;;;;;58.58;28.17;;;10.40;99.90;;;;;;5035639;28;20025;-56
2023/12/13 06:40:10;;;;;;;55.53;28.40;;;10.60;99.90;;;;;;5028555;28;20029;-56
2023/12/13 06:42:36;;;;;;;42.33;16.23;;;10.70;99.90;;;;;;5027162;28;20032;-57
2023/12/13 06:45:03;;;;;;;23.15;12.10;;;11.20;99.90;;;;;;5035850;28;20025;-56
2023/12/13 06:47:29;;;;;;;39.65;16.33;;;11.40;99.90;;;;;;5035355;28;20052;-56
2023/12/13 06:49:55;;;;;;;18.05;6.10;;;11.70;99.90;;;;;;5035619;28;20114;-57
2023/12/13 06:52:21;;;;;;;19.95;8.25;;;12.10;99.90;;;;;;5028713;28;20038;-57
2023/12/13 06:54:47;;;;;;;21.83;8.38;;;12.40;99.90;;;;;;5034555;28;20021;-56
2023/12/13 06:57:13;;;;;;;33.17;15.27;;;12.60;99.90;;;;;;5035013;28;20032;-57
2023/12/13 06:59:39;;;;;;;32.65;15.65;;;12.70;99.90;;;;;;5034765;28;20029;-57
2023/12/13 07:02:06;;;;;;;37.80;14.30;;;12.70;99.90;;;;;;5028595;28;20116;-56
2023/12/13 07:04:32;;;;;;;45.28;16.02;;;12.80;99.90;;;;;;5028969;28;20037;-57
2023/12/13 07:07:01;;;;;;;45.88;18.15;;;12.80;99.90;;;;;;5034092;28;20025;-57
2023/12/13 07:09:27;;;;;;;58.42;22.77;;;12.90;99.90;;;;;;5026941;28;20067;-57
2023/12/13 07:11:53;;;;;;;78.22;30.20;;;12.90;99.90;;;;;;5029938;28;20089;-57
2023/12/13 07:14:19;;;;;;;74.97;35.00;;;12.90;99.90;;;;;;5035301;28;20197;-57
2023/12/13 07:16:44;;;;;;;86.22;38.53;;;12.80;99.90;;;;;;5033185;28;20049;-57
2023/12/13 07:19:10;;;;;;;106.55;46.42;;;12.50;99.90;;;;;;5035240;28;20034;-57
2023/12/13 07:21:36;;;;;;;108.60;46.15;;;12.40;99.90;;;;;;5035448;28;20592;-56
2023/12/13 07:24:04;;;;;;;100.38;46.50;;;12.30;99.90;;;;;;5034257;28;20080;-57
2023/12/13 07:26:30;;;;;;;116.82;51.80;;;12.30;99.90;;;;;;5033863;28;20435;-57
2023/12/13 07:28:56;;;;;;;111.95;53.10;;;12.20;99.90;;;;;;5033412;28;20037;-57
2023/12/13 07:31:23;;;;;;;145.38;58.17;;;12.10;99.90;;;;;;5034971;28;20025;-56
2023/12/13 07:33:48;;;;;;;114.18;52.10;;;11.90;99.90;;;;;;5035032;28;20030;-57
2023/12/13 07:36:14;;;;;;;112.40;56.28;;;11.90;99.90;;;;;;5035038;28;20025;-57
2023/12/13 07:38:41;;;;;;;108.55;54.10;;;11.90;99.90;;;;;;5034849;28;20042;-57
2023/12/13 07:41:08;;;;;;;108.97;54.65;;;11.80;99.90;;;;;;5034627;28;20025;-57
2023/12/13 07:43:34;;;;;;;107.18;52.20;;;11.80;99.90;;;;;;5035658;28;20021;-56
2023/12/13 07:46:00;;;;;;;110.57;54.78;;;11.70;99.90;;;;;;5035325;28;20028;-57
2023/12/13 07:48:25;;;;;;;115.65;53.80;;;11.70;99.90;;;;;;5035124;28;20115;-57
2023/12/13 07:50:53;;;;;;;113.22;53.20;;;11.60;99.90;;;;;;5034483;28;20026;-57
2023/12/13 07:53:19;;;;;;;119.38;54.47;;;11.60;99.90;;;;;;5030051;28;20030;-57
2023/12/13 07:55:45;;;;;;;112.93;57.13;;;11.60;99.90;;;;;;5034387;28;20049;-57
2023/12/13 07:58:11;;;;;;;117.65;57.05;;;11.60;99.90;;;;;;5033523;28;20120;-57
2023/12/13 08:00:37;;;;;;;123.63;61.50;;;11.50;99.90;;;;;;5032867;28;20049;-57
2023/12/13 08:03:04;;;;;;;129.00;63.53;;;11.50;99.90;;;;;;5033801;28;20451;-57
2023/12/13 08:05:30;;;;;;;140.02;65.13;;;11.50;99.90;;;;;;5034198;28;20025;-57
2023/12/13 08:07:56;;;;;;;130.77;65.32;;;11.50;99.90;;;;;;5031587;28;20112;-56
2023/12/13 08:10:22;;;;;;;156.93;72.35;;;11.40;99.90;;;;;;5034107;28;20041;-57
2023/12/13 08:12:47;;;;;;;148.45;68.50;;;11.40;99.90;;;;;;5026919;28;20026;-57
2023/12/13 08:15:13;;;;;;;146.73;69.30;;;11.40;99.90;;;;;;5020583;28;20042;-57
2023/12/13 08:17:40;;;;;;;128.27;65.80;;;11.30;99.90;;;;;;5016033;28;20048;-57
2023/12/13 08:20:06;;;;;;;137.07;70.05;;;11.40;99.90;;;;;;5034552;28;20543;-57
2023/12/13 08:22:33;;;;;;;152.15;69.85;;;11.40;99.90;;;;;;5034590;28;20036;-57
2023/12/13 08:24:59;;;;;;;139.02;68.78;;;11.40;99.90;;;;;;5034245;28;20042;-57
2023/12/13 08:27:25;;;;;;;143.88;66.20;;;11.50;99.90;;;;;;5034560;28;20022;-57
2023/12/13 08:29:51;;;;;;;131.35;67.57;;;11.50;99.90;;;;;;5037636;28;20430;-56
2023/12/13 08:32:17;;;;;;;156.60;71.32;;;11.60;99.90;;;;;;5037350;28;20112;-56
2023/12/13 08:34:44;;;;;;;156.80;72.32;;;11.70;99.90;;;;;;5037039;28;20167;-57
2023/12/13 08:37:10;;;;;;;141.40;69.95;;;11.70;99.90;;;;;;5036176;28;20068;-57
2023/12/13 08:39:36;;;;;;;136.05;67.20;;;11.80;99.90;;;;;;5036499;28;20475;-57
2023/12/13 08:42:03;;;;;;;146.27;71.45;;;11.80;99.90;;;;;;5037687;28;20037;-57
2023/12/13 08:44:29;;;;;;;175.07;76.13;;;11.90;99.90;;;;;;5038022;28;20029;-56
2023/12/13 08:46:56;;;;;;;174.52;79.38;;;12.00;99.90;;;;;;5036592;28;20164;-56
2023/12/13 08:49:21;;;;;;;172.75;77.93;;;12.10;99.90;;;;;;5023631;28;20125;-57
2023/12/13 08:51:47;;;;;;;150.85;70.90;;;12.20;99.90;;;;;;5037307;28;20072;-57
2023/12/13 08:54:13;;;;;;;148.02;70.35;;;12.30;99.90;;;;;;5037598;28;20034;-57
2023/12/13 08:56:39;;;;;;;145.45;72.00;;;12.40;99.90;;;;;;5036862;28;20040;-57
2023/12/13 08:59:05;;;;;;;149.90;72.10;;;12.50;99.90;;;;;;5037815;28;20030;-57
2023/12/13 09:01:31;;;;;;;139.10;69.85;;;12.50;99.90;;;;;;5037689;28;20064;-57
2023/12/13 09:03:57;;;;;;;131.23;68.68;;;12.60;99.90;;;;;;5038015;28;20487;-57
2023/12/13 09:06:23;;;;;;;132.07;65.80;;;12.70;99.90;;;;;;5037692;28;20064;-57
2023/12/13 09:08:49;;;;;;;79.70;38.60;;;12.80;99.90;;;;;;5037764;28;20065;-57
2023/12/13 09:11:15;;;;;;;126.50;59.72;;;12.90;99.90;;;;;;5037255;28;20041;-57
2023/12/13 09:13:41;;;;;;;109.72;56.92;;;13.20;99.90;;;;;;5037849;28;20037;-57
2023/12/13 09:16:07;;;;;;;16.02;6.07;;;13.40;99.90;;;;;;5037860;28;20087;-57
2023/12/13 09:18:33;;;;;;;48.53;16.17;;;14.00;99.90;;;;;;5026982;28;20049;-57
2023/12/13 09:20:59;;;;;;;15.05;4.00;;;14.40;99.90;;;;;;5029643;28;20119;-57
2023/12/13 09:23:26;;;;;;;15.15;4.03;;;14.90;99.90;;;;;;5036111;28;20192;-57
2023/12/13 09:25:52;;;;;;;12.90;2.58;;;15.20;99.50;;;;;;5036899;28;20092;-57
2023/12/13 09:28:19;;;;;;;12.20;3.08;;;15.50;98.30;;;;;;5036801;28;20029;-57
2023/12/13 09:30:45;;;;;;;13.48;3.00;;;15.70;97.50;;;;;;5035355;28;20021;-57
2023/12/13 09:33:13;;;;;;;9.75;2.67;;;15.90;95.60;;;;;;5036197;28;20045;-57
2023/12/13 09:35:40;;;;;;;14.02;2.92;;;16.20;94.90;;;;;;5036617;28;20022;-57
2023/12/13 09:38:06;;;;;;;13.25;3.10;;;16.30;94.50;;;;;;5036873;28;20088;-57
2023/12/13 09:40:32;;;;;;;16.42;3.35;;;16.50;93.80;;;;;;5029265;28;20026;-57
2023/12/13 09:43:00;;;;;;;15.63;3.55;;;16.60;93.30;;;;;;5033585;28;20491;-57
2023/12/13 09:45:28;;;;;;;13.40;2.95;;;16.70;92.30;;;;;;5036127;28;20021;-57
2023/12/13 09:47:55;;;;;;;17.30;4.60;;;16.90;91.70;;;;;;5033138;28;20018;-57
2023/12/13 09:50:23;;;;;;;17.15;3.85;;;17.00;91.00;;;;;;5035261;28;20022;-57
2023/12/13 09:52:50;;;;;;;15.68;4.25;;;17.10;91.20;;;;;;5036048;28;20035;-57
2023/12/13 09:55:16;;;;;;;19.38;3.45;;;17.20;90.50;;;;;;5035608;28;20038;-57
2023/12/13 09:57:43;;;;;;;15.55;3.40;;;17.30;90.60;;;;;;5036096;28;20022;-57
2023/12/13 10:00:12;;;;;;;19.05;4.88;;;17.40;89.90;;;;;;5028865;28;20471;-57
2023/12/13 10:02:38;;;;;;;9.48;3.38;;;17.40;88.90;;;;;;5021805;28;20491;-57
2023/12/13 10:05:08;;;;;;;14.10;4.50;;;17.40;88.70;;;;;;5024419;28;20200;-57
2023/12/13 10:07:34;;;;;;;11.82;3.95;;;17.50;88.00;;;;;;5035764;28;20040;-57
2023/12/13 10:10:00;;;;;;;21.65;5.88;;;17.60;87.10;;;;;;5035231;28;20036;-57
2023/12/13 10:12:26;;;;;;;9.88;3.40;;;17.60;86.80;;;;;;5033243;28;20030;-57
2023/12/13 10:14:53;;;;;;;20.80;4.50;;;17.60;85.70;;;;;;5024184;28;20040;-57
2023/12/13 10:17:22;;;;;;;15.63;4.20;;;17.70;86.50;;;;;;5024004;28;20030;-57
2023/12/13 10:19:49;;;;;;;19.40;5.03;;;17.70;84.90;;;;;;5036396;28;20026;-57
2023/12/13 10:22:18;;;;;;;13.20;3.75;;;17.80;85.10;;;;;;5035536;28;20029;-57
2023/12/13 10:24:44;;;;;;;13.40;3.80;;;17.90;84.50;;;;;;5035898;28;20104;-57
2023/12/13 10:27:10;;;;;;;13.60;3.70;;;17.90;84.00;;;;;;5034721;28;20064;-57
2023/12/13 10:29:36;;;;;;;23.75;3.95;;;18.00;83.00;;;;;;5035924;28;20056;-57
2023/12/13 10:32:02;;;;;;;14.57;3.47;;;18.00;84.40;;;;;;5035758;28;20052;-57
2023/12/13 10:34:29;;;;;;;17.83;3.55;;;18.00;83.90;;;;;;5035718;28;20479;-57
2023/12/13 10:36:55;;;;;;;15.98;3.40;;;18.10;83.40;;;;;;5032965;28;20052;-57
2023/12/13 10:39:24;;;;;;;19.17;4.10;;;18.00;82.80;;;;;;5036140;28;20025;-57
2023/12/13 10:41:55;;;;;;;14.32;3.17;;;18.10;82.80;;;;;;5036137;28;20080;-57
2023/12/13 10:44:22;;;;;;;9.95;3.38;;;18.10;80.40;;;;;;5035713;28;20028;-57
2023/12/13 10:46:56;;;;;;;30.58;5.05;;;18.00;80.30;;;;;;5034203;28;20022;-57
2023/12/13 10:49:22;;;;;;;10.82;3.30;;;18.00;80.80;;;;;;5035892;28;20056;-57
2023/12/13 10:51:48;;;;;;;13.23;2.78;;;18.00;79.30;;;;;;5035464;28;20030;-57
2023/12/13 10:54:15;;;;;;;16.15;3.80;;;17.90;78.90;;;;;;5035330;28;20109;-57
2023/12/13 10:56:42;;;;;;;11.30;3.25;;;18.00;79.20;;;;;;5035725;28;20021;-57
2023/12/13 10:59:09;;;;;;;16.48;3.80;;;18.00;79.10;;;;;;5035606;28;20125;-57
2023/12/13 11:01:38;;;;;;;17.13;3.95;;;18.00;78.70;;;;;;5035549;28;20030;-57
2023/12/13 11:04:12;;;;;;;12.55;3.42;;;18.10;78.30;;;;;;5034790;28;20150;-57
2023/12/13 11:06:44;;;;;;;14.63;5.95;;;18.10;77.60;;;;;;5035880;28;20112;-57
2023/12/13 11:09:15;;;;;;;14.57;5.10;;;18.20;77.40;;;;;;5035583;28;20064;-57
2023/12/13 11:11:42;;;;;;;;;;;18.20;77.60;;;;;;5035735;28;20032;-57
2023/12/13 11:14:12;;;;;;;18.27;6.07;;;18.20;76.40;;;;;;5033315;28;19909;-57
2023/12/13 11:16:40;;;;;;;16.13;6.57;;;18.20;76.80;;;;;;5034851;28;20041;-57
2023/12/13 11:19:09;;;;;;;33.72;8.57;;;18.20;76.90;;;;;;5035369;28;20030;-57
2023/12/13 11:21:35;;;;;;;67.95;25.92;;;18.20;77.60;;;;;;5033739;28;20091;-57
2023/12/13 11:24:16;;;;;;;141.48;49.60;;;18.20;78.80;;;;;;5035126;28;20379;-57
2023/12/13 11:26:45;;;;;;;45.55;12.05;;;18.20;79.40;;;;;;5035218;28;20504;-57
2023/12/13 11:29:28;;;;;;;26.45;6.68;;;18.20;77.20;;;;;;5035753;28;20098;-57
2023/12/13 11:31:59;;;;;;;21.10;5.15;;;18.10;77.10;;;;;;5035839;28;20025;-57
2023/12/13 11:34:35;;;;;;;17.83;5.10;;;18.00;78.00;;;;;;5032515;28;20452;-57
2023/12/13 11:37:06;;;;;;;24.35;6.35;;;18.00;78.20;;;;;;5028043;28;20034;-57
2023/12/13 11:39:34;;;;;;;41.58;22.25;;;18.00;77.60;;;;;;5035621;28;20037;-57
2023/12/13 11:42:02;;;;;;;27.00;9.23;;;17.90;77.20;;;;;;5030480;28;20064;-57
2023/12/13 11:44:32;;;;;;;35.17;7.38;;;18.00;76.90;;;;;;5033180;28;20026;-57
2023/12/13 11:47:01;;;;;;;17.07;5.17;;;18.00;76.80;;;;;;5034141;28;20400;-57
2023/12/13 11:49:28;;;;;;;11.23;3.63;;;18.00;76.90;;;;;;5033211;28;20037;-57
2023/12/13 11:51:55;;;;;;;26.88;6.00;;;18.10;75.40;;;;;;5032737;28;20040;-57
2023/12/13 11:54:21;;;;;;;9.80;3.08;;;18.10;76.30;;;;;;5023263;28;20085;-57
2023/12/13 11:56:47;;;;;;;11.63;4.00;;;18.10;74.10;;;;;;5033847;28;20120;-57
2023/12/13 11:59:13;;;;;;;15.60;5.45;;;18.10;74.30;;;;;;5034155;28;20057;-57
2023/12/13 12:01:40;;;;;;;23.95;5.90;;;18.10;74.80;;;;;;5032424;28;20490;-57
2023/12/13 12:04:07;;;;;;;13.98;3.30;;;18.10;75.10;;;;;;5028837;28;20022;-57
2023/12/13 12:06:33;;;;;;;16.20;3.13;;;18.10;73.90;;;;;;5017753;28;20031;-57
2023/12/13 12:09:00;;;;;;;19.00;5.30;;;18.10;73.10;;;;;;5023586;28;20022;-57
2023/12/13 12:11:26;;;;;;;10.45;3.08;;;18.10;74.30;;;;;;5029508;28;20037;-57
2023/12/13 12:13:55;;;;;;;17.10;4.07;;;18.10;73.60;;;;;;5036769;28;20041;-57
2023/12/13 12:16:21;;;;;;;31.98;6.15;;;18.10;74.20;;;;;;5037177;28;20029;-57
2023/12/13 12:18:47;;;;;;;10.05;4.15;;;18.10;75.70;;;;;;5038106;28;20071;-57
2023/12/13 12:21:14;;;;;;;16.63;4.57;;;18.10;74.10;;;;;;5037703;28;20033;-57
2023/12/13 12:23:42;;;;;;;17.55;4.70;;;18.00;74.30;;;;;;5038049;28;20048;-57
2023/12/13 12:26:12;;;;;;;23.80;5.40;;;18.00;73.80;;;;;;5036421;28;20391;-57